Map

Track Data

SID SEASON NUMBER BASIN SUBBASIN NAME ISO_TIME NATURE LAT LON WMO_WIND WMO_PRES WMO_AGENCY TRACK_TYPE DIST2LAND LANDFALL IFLAG USA_AGENCY USA_ATCF_ID USA_LAT USA_LON USA_RECORD USA_STATUS USA_WIND USA_PRES USA_SSHS USA_R34_NE USA_R34_SE USA_R34_SW USA_R34_NW USA_R50_NE USA_R50_SE USA_R50_SW USA_R50_NW USA_R64_NE USA_R64_SE USA_R64_SW USA_R64_NW USA_POCI USA_ROCI USA_RMW USA_EYE TOKYO_LAT TOKYO_LON TOKYO_GRADE TOKYO_WIND TOKYO_PRES TOKYO_R50_DIR TOKYO_R50_LONG TOKYO_R50_SHORT TOKYO_R30_DIR TOKYO_R30_LONG TOKYO_R30_SHORT TOKYO_LAND CMA_LAT CMA_LON CMA_CAT CMA_WIND CMA_PRES HKO_LAT HKO_LON HKO_CAT HKO_WIND HKO_PRES NEWDELHI_LAT NEWDELHI_LON NEWDELHI_GRADE NEWDELHI_WIND NEWDELHI_PRES NEWDELHI_CI NEWDELHI_DP NEWDELHI_POCI REUNION_LAT REUNION_LON REUNION_TYPE REUNION_WIND REUNION_PRES REUNION_TNUM REUNION_CI REUNION_RMW REUNION_R34_NE REUNION_R34_SE REUNION_R34_SW REUNION_R34_NW REUNION_R50_NE REUNION_R50_SE REUNION_R50_SW REUNION_R50_NW REUNION_R64_NE REUNION_R64_SE REUNION_R64_SW REUNION_R64_NW BOM_LAT BOM_LON BOM_TYPE BOM_WIND BOM_PRES BOM_TNUM BOM_CI BOM_RMW BOM_R34_NE BOM_R34_SE BOM_R34_SW BOM_R34_NW BOM_R50_NE BOM_R50_SE BOM_R50_SW BOM_R50_NW BOM_R64_NE BOM_R64_SE BOM_R64_SW BOM_R64_NW BOM_ROCI BOM_POCI BOM_EYE BOM_POS_METHOD BOM_PRES_METHOD NADI_LAT NADI_LON NADI_CAT NADI_WIND NADI_PRES WELLINGTON_LAT WELLINGTON_LON WELLINGTON_WIND WELLINGTON_PRES DS824_LAT DS824_LON DS824_STAGE DS824_WIND DS824_PRES TD9636_LAT TD9636_LON TD9636_STAGE TD9636_WIND TD9636_PRES TD9635_LAT TD9635_LON TD9635_WIND TD9635_PRES TD9635_ROCI NEUMANN_LAT NEUMANN_LON NEUMANN_CLASS NEUMANN_WIND NEUMANN_PRES MLC_LAT MLC_LON MLC_CLASS MLC_WIND MLC_PRES USA_GUST BOM_GUST BOM_GUST_PER REUNION_GUST REUNION_GUST_PER USA_SEAHGT USA_SEARAD_NE USA_SEARAD_SE USA_SEARAD_SW USA_SEARAD_NW STORM_SPEED STORM_DIR
1979122S04095 1979 35 SI WA KEVIN 1979-05-02 00:00:00 TS -4.30000 94.7000 25 1002 bom main 550 550 ______O_______ -1 -4.30000 94.7000 20 25 1002 1.50000 3 229
1979122S04095 1979 35 SI WA KEVIN 1979-05-02 03:00:00 TS -4.40749 94.5725 main 565 565 ______P_______ -1 -4.40749 94.5725 20 25 1002 3 236
1979122S04095 1979 35 SI WA KEVIN 1979-05-02 06:00:00 TS -4.48571 94.4286 25 1002 bom main 590 590 ______O_____O_ -1 -4.50000 94.4000 20 25 1002 1.50000 -4.40000 94.6000 TC 25 1010 4 250
1979122S04095 1979 35 SI WA KEVIN 1979-05-02 09:00:00 TS -4.54451 94.1960 main 609 609 ______P_____P_ -1 -4.56501 94.1575 20 25 1001 -4.46252 94.3500 TC 25 1010 5 260
1979122S04095 1979 35 SI WA KEVIN 1979-05-02 12:00:00 TS -4.57273 93.9545 25 1001 bom main 634 634 ______O_____O_ -1 -4.60000 93.9000 20 25 1001 2.00000 -4.50000 94.1000 TC 25 1010 5 267
1979122S04095 1979 35 SI WA KEVIN 1979-05-02 15:00:00 TS -4.57166 93.7450 main 663 663 ______P_____P_ -1 -4.60749 93.6925 20 25 1001 -4.49999 93.8500 TC 15 1009 4 271
1979122S04095 1979 35 SI WA KEVIN 1979-05-02 18:00:00 TS -4.56667 93.5333 25 1001 bom main 682 682 ______O_____O_ -1 -4.60000 93.5000 20 25 1001 2.00000 -4.50000 93.6000 TC 5 1009 4 268
1979122S04095 1979 35 SI WA KEVIN 1979-05-02 21:00:00 TS -4.58334 93.3067 main 701 701 ______P_____P_ -1 -4.60000 93.2925 20 25 1001 -4.55000 93.3350 TC 7 1008 4 266
1979122S04095 1979 35 SI WA KEVIN 1979-05-03 00:00:00 TS -4.60000 93.1000 25 1001 bom main 720 720 ______O_____O_ -1 -4.60000 93.1000 20 25 1001 2.00000 -4.60000 93.1000 TC 10 1008 4 268
1979122S04095 1979 35 SI WA KEVIN 1979-05-03 03:00:00 TS -4.59499 92.9375 main 739 739 ______P_____P_ -1 -4.59249 92.9425 20 25 1000 -4.59999 92.9275 TC 12 1007 3 270
1979122S04095 1979 35 SI WA KEVIN 1979-05-03 06:00:00 TS -4.60000 92.8000 25 1000 bom main 748 748 ______O_____O_ -1 -4.60000 92.8000 20 25 1000 2.00000 -4.60000 92.8000 TC 15 1007 3 259
1979122S04095 1979 35 SI WA KEVIN 1979-05-03 09:00:00 TS -4.65000 92.6567 main 758 758 ______P_____P_ -1 -4.65000 92.6425 20 27 999 -4.65000 92.6850 TC 15 1006 3 249
1979122S04095 1979 35 SI WA KEVIN 1979-05-03 12:00:00 TS -4.70000 92.5333 30 999 bom main 783 783 ______O_____O_ -1 -4.70000 92.5000 20 30 999 2.50000 -4.70000 92.6000 TC 15 1006 2 257
1979122S04095 1979 35 SI WA KEVIN 1979-05-03 15:00:00 TS -4.70000 92.4450 main 792 792 ______P_____P_ -1 -4.70000 92.3925 20 30 999 -4.70000 92.5500 TC 15 1006 2 270
1979122S04095 1979 35 SI WA KEVIN 1979-05-03 18:00:00 TS -4.70000 92.3667 30 999 bom main 792 792 ______O_____O_ -1 -4.70000 92.3000 20 30 999 2.50000 -4.70000 92.5000 TC 15 1006 2 254
1979122S04095 1979 35 SI WA KEVIN 1979-05-03 21:00:00 TS -4.74248 92.2917 main 802 802 ______P_____P_ -1 -4.74248 92.2225 20 30 998 -4.74249 92.4300 TC 17 1005 2 243
1979122S04095 1979 35 SI WA KEVIN 1979-05-04 00:00:00 TS -4.80000 92.1667 30 998 bom main 817 817 ______O_____O_ -1 -4.80000 92.1000 20 30 998 2.50000 -4.80000 92.3000 TC 20 1005 3 254
1979122S04095 1979 35 SI WA KEVIN 1979-05-04 03:00:00 TS -4.83998 91.9591 main 837 837 ______P_____P_ -1 -4.83498 91.8950 20 30 998 -4.84999 92.0875 TC 20 1005 5 259
1979122S04095 1979 35 SI WA KEVIN 1979-05-04 06:00:00 TS -4.90000 91.6667 30 998 bom main 871 871 ______O_____O_ -1 -4.90000 91.6000 20 30 998 2.50000 -4.90000 91.8000 TC 20 1005 7 255
1979122S04095 1979 35 SI WA KEVIN 1979-05-04 09:00:00 TS -5.01418 91.3034 main 916 916 ______P_____P_ -1 -5.05001 91.2225 20 30 997 -4.94250 91.4650 TC 20 1005 8 253
1979122S04095 1979 35 SI WA KEVIN 1979-05-04 12:00:00 TS -5.13333 90.9000 30 997 bom main 960 960 ______O_____O_ -1 -5.20000 90.8000 20 30 997 2.50000 -5.00000 91.1000 TC 20 1005 8 256
1979122S04095 1979 35 SI WA KEVIN 1979-05-04 15:00:00 TS -5.20995 90.5292 main 1005 1005 ______P_____P_ -1 -5.26494 90.4150 20 30 997 -5.09997 90.7575 TC 20 1005 8 260
1979122S04095 1979 35 SI WA KEVIN 1979-05-04 18:00:00 TS -5.26667 90.1333 30 997 bom main 1050 1050 ______O_____O_ -1 -5.30000 90.0000 20 30 997 2.50000 -5.20000 90.4000 TC 20 1005 9 264
1979122S04095 1979 35 SI MM KEVIN 1979-05-04 21:00:00 TS -5.30416 89.6766 main 1090 1090 ______P_____P_ -1 -5.33501 89.5075 20 30 996 -5.24247 90.0150 TC 20 1004 9 264
1979122S04095 1979 35 SI MM KEVIN 1979-05-05 00:00:00 TS -5.36667 89.2000 30 996 bom main 1145 1145 ______O_____O_ -1 -5.40000 89.0000 20 30 996 2.50000 -5.30000 89.6000 TC 20 1004 9 258
1979122S04095 1979 35 SI MM KEVIN 1979-05-05 03:00:00 TS -5.50162 88.7525 main 1190 1190 ______P_____P_ -1 -5.53493 88.5500 20 32 995 -5.43498 89.1575 TC 20 1004 9 251
1979122S04095 1979 35 SI MM KEVIN 1979-05-05 06:00:00 TS -5.66667 88.3000 35 995 bom main 1249 1249 ______O_____O_ -1 -5.70000 88.1000 30 35 995 3.00000 -5.60000 88.7000 TC 20 1004 10 251
1979122S04095 1979 35 SI MM KEVIN 1979-05-05 09:00:00 TS -5.82165 87.8192 main 1295 1295 ______P_____P_ -1 -5.85749 87.6000 30 35 995 -5.74995 88.2575 TC 20 1004 10 253
1979122S04095 1979 35 SI MM KEVIN 1979-05-05 12:00:00 TS -5.96667 87.3333 35 995 bom main 1349 1349 ______O_____O_ -1 -6.00000 87.1000 30 35 995 3.00000 -5.90000 87.8000 TC 20 1004 10 255
1979122S04095 1979 35 SI MM KEVIN 1979-05-05 15:00:00 TS -6.08327 86.8691 main 1388 1388 ______P_____P_ -1 -6.09992 86.6499 30 37 994 -6.04997 87.3075 TC 22 1003 10 256
1979122S04095 1979 35 SI MM KEVIN 1979-05-05 18:00:00 TS -6.20000 86.4000 40 994 bom main 1436 1436 ______O_____O_ -1 -6.20000 86.2000 30 40 994 3.00000 -6.20000 86.8000 TC 25 1003 10 255
1979122S04095 1979 35 SI MM KEVIN 1979-05-05 21:00:00 TS -6.34752 85.8850 main 1485 1485 ______P_____P_ -1 -6.34253 85.6850 30 42 993 -6.35749 86.2850 TC 25 1003 10 253
1979122S04095 1979 35 SI MM KEVIN 1979-05-06 00:00:00 TS -6.50000 85.4000 45 993 bom main 1488 1483 ______O_____O_ -1 -6.50000 85.2000 30 45 993 3.00000 -6.50000 85.8000 TC 25 1003 9 251
1979122S04095 1979 35 SI MM KEVIN 1979-05-06 03:00:00 TS -6.64076 85.0133 main 1483 1483 ______P_____P_ -1 -6.65742 84.8275 30 47 993 -6.60743 85.3850 TC 25 1003 8 250
1979122S04095 1979 35 SI MM KEVIN 1979-05-06 06:00:00 TS -6.76667 84.6667 50 993 bom main 1494 1484 ______O_____O_ -1 -6.80000 84.5000 30 50 993 3.50000 -6.70000 85.0000 TC 25 1003 7 251
1979122S04095 1979 35 SI MM KEVIN 1979-05-06 09:00:00 TS -6.87663 84.3050 main 1492 1483 ______P_____P_ -1 -6.91496 84.1575 30 50 992 -6.79997 84.6000 TC 25 1002 8 255
1979122S04095 1979 35 SI MM KEVIN 1979-05-06 12:00:00 TS -6.96667 83.9333 50 992 bom main 1491 1483 ______O_____O_ -1 -7.00000 83.8000 30 50 992 3.50000 -6.90000 84.2000 TC 25 1002 8 258
1979122S04095 1979 35 SI MM KEVIN 1979-05-06 15:00:00 TS -7.03581 83.5383 main 1481 1481 ______P_____P_ -1 -7.04998 83.4075 30 50 991 -7.00747 83.8000 TC 25 1002 8 260
1979122S04095 1979 35 SI MM KEVIN 1979-05-06 18:00:00 TS -7.10000 83.1333 50 991 bom main 1482 1475 ______O_____O_ -1 -7.10000 83.0000 30 50 991 3.50000 -7.10000 83.4000 TC 25 1002 8 262
1979122S04095 1979 35 SI MM KEVIN 1979-05-06 21:00:00 TS -7.14744 82.7083 main 1475 1475 ______P_____P_ -1 -7.15225 82.5999 30 50 990 -7.13504 82.9625 TC 25 1002 10 260
1979122S04095 1979 35 SI MM KEVIN 1979-05-07 00:00:00 TS -7.27333 82.1267 50 990 bom main 1488 1487 O_____O__OO_O_ jtwc_sh SH271979 -7.30000 81.3000 50 0 -7.30000 82.2000 30 50 990 3.50000 -7.30000 81.3000 TC 50 -7.30000 81.3000 2 -7.20000 82.6000 TC 25 1002 9 247
1979122S04095 1979 35 SI MM KEVIN 1979-05-07 03:00:00 TS -7.50045 81.8523 50 990 bom main 1508 1507 P_____O__PP_P_ SH271979 -7.39751 81.4975 47 0 -7.60000 81.8000 30 50 990 3.50000 -7.39751 81.4975 TC 47 -7.43178 81.5605 2 -7.37745 82.3825 TC 27 1001 5 208
1979122S04095 1979 35 SI MM KEVIN 1979-05-07 06:00:00 TS -7.71382 81.8873 50 989 bom main 1530 1530 O_____O__OP_O_ jtwc_sh SH271979 -7.50000 81.7000 45 0 -8.00000 81.9000 30 50 989 3.50000 -7.50000 81.7000 TC 45 -7.55078 81.7969 2 -7.60000 82.3000 TC 30 1000 4 141
1979122S04095 1979 35 SI MM KEVIN 1979-05-07 09:00:00 TS -7.81345 82.1068 50 989 bom main 1544 1544 P_____O__PP_P_ SH271979 -7.60750 81.9075 40 0 -8.10000 82.4000 30 50 989 3.50000 -7.60750 81.9075 TC 40 -7.64438 81.9848 2 -7.82993 82.2675 TC 32 999 5 109
1979122S04095 1979 35 SI MM KEVIN 1979-05-07 12:00:00 TS -7.88333 82.3833 50 989 bom main 1559 1559 O_____O__OO_O_ jtwc_sh SH271979 -7.70000 82.1000 35 0 -8.10000 82.8000 30 50 989 3.50000 -7.70000 82.1000 TC 35 -7.70000 82.1000 2 50 -8.00000 82.4000 TC 35 998 5 99
1979122S04095 1979 35 SI MM KEVIN 1979-05-07 15:00:00 TS -7.89855 82.6289 main 1562 1562 P_____P__PP_P_ SH271979 -7.76498 82.2500 32 -1 -8.05338 83.2000 30 50 988 -7.76498 82.2500 TC 32 -7.71303 82.1407 2 46 -8.03749 82.7250 TC 35 997 5 90
1979122S04095 1979 35 SI MM KEVIN 1979-05-07 18:00:00 TS -7.88511 82.8994 50 988 bom main 1567 1567 O_____O__OP_O_ jtwc_sh SH271979 -7.80000 82.4000 30 -1 -8.00000 83.6000 30 50 988 3.50000 -7.80000 82.4000 TC 30 -7.71068 82.1963 2 42 -8.00000 83.2000 TC 35 996 5 87
1979122S04095 1979 35 SI MM KEVIN 1979-05-07 21:00:00 TS -7.86830 83.1790 main 1573 1573 P_____P__PP_P_ SH271979 -7.77717 82.4877 30 -1 -7.99246 84.0000 30 50 987 -7.77717 82.4877 TC 30 -7.72805 82.3786 2 38 -7.94248 83.7201 TC 40 993 7 90
1979122S04095 1979 35 SI MM KEVIN 1979-05-08 00:00:00 TS -7.88333 83.5833 50 987 bom main 1581 1581 O_____O__OO_O_ jtwc_sh SH271979 -7.80000 82.8000 30 -1 -8.00000 84.4000 30 50 987 3.50000 -7.80000 82.8000 TC 30 -7.80000 82.8000 2 35 -7.90000 84.3000 TC 45 990 10 96
1979122S04095 1979 35 SI MM KEVIN 1979-05-08 03:00:00 TS -7.97355 84.2083 main 1608 1608 P_____P__PP_P_ SH271979 -7.96246 83.5501 30 -1 -7.98496 84.8000 30 50 986 -7.96246 83.5501 TC 30 -8.02650 83.6496 2 33 -7.91998 84.9000 TC 47 989 14 100
1979122S04095 1979 35 SI MM KEVIN 1979-05-08 06:00:00 TS -8.11637 84.9721 50 986 bom main 1643 1636 O_____O__OP_O_ jtwc_sh SH271979 -8.20000 84.6000 30 -1 -8.00000 85.2000 30 50 986 3.50000 -8.20000 84.6000 TC 30 -8.29822 84.7328 2 32 -8.00000 85.5000 TC 50 988 16 102
1979122S04095 1979 35 SI MM KEVIN 1979-05-08 09:00:00 TS -8.30308 85.7865 main 1626 1561 P_____P__PP_P_ SH271979 -8.48800 85.8145 30 -1 -8.07736 85.5700 30 50 986 -8.48800 85.8145 TC 30 -8.54543 85.8999 2 31 -8.14236 86.0500 TC 50 988 17 102
1979122S04095 1979 35 SI MM KEVIN 1979-05-08 12:00:00 TS -8.46667 86.6000 50 986 bom main 1561 1494 O_____O__OO_O_ jtwc_sh SH271979 -8.70000 87.0000 30 -1 -8.20000 86.0000 30 50 986 3.50000 -8.70000 87.0000 TC 30 -8.70000 87.0000 1 30 -8.30000 86.6000 TC 50 988 15 99
1979122S04095 1979 35 SI MM KEVIN 1979-05-08 15:00:00 TS -8.54240 87.3219 main 1494 1437 P_____P__PP_P_ SH271979 -8.71701 87.8826 -1 -8.34979 86.5250 30 50 986 -8.71701 87.8826 TC -8.71334 87.9162 1 -8.40748 87.2001 TC 50 988 13 93
1979122S04095 1979 35 SI MM KEVIN 1979-05-08 18:00:00 TS -8.54401 87.9241 50 987 bom main 1437 1381 O_____O__OP_O_ jtwc_sh SH271979 -8.60000 88.6000 -1 -8.50000 87.2000 30 50 987 3.50000 -8.60000 88.6000 TC -8.60810 88.6687 1 -8.50000 87.8000 TC 50 988 12 90
1979122S04095 1979 35 SI MM KEVIN 1979-05-08 21:00:00 TS -8.54454 88.5513 main 1372 1332 P_____P__PP_P_ SH271979 -8.41533 89.2601 -1 -8.61535 88.1000 30 50 987 -8.41533 89.2601 TC -8.42394 89.3118 1 -8.59242 88.3651 TC 50 988 12 93
1979122S04095 1979 35 SI MM KEVIN 1979-05-09 00:00:00 TS -8.60000 89.1533 50 988 bom main 1323 1301 O_____O__OO_O_ jtwc_sh SH271979 -8.20000 89.9000 -1 -8.70000 89.0000 30 50 988 3.50000 -8.20000 89.9000 TC -8.20000 89.9000 1 -8.70000 88.9000 TC 50 988 11 103
1979122S04095 1979 35 SI MM KEVIN 1979-05-09 03:00:00 TS -8.78065 89.5859 main 1301 1265 ______P_____P_ SH271979 -1 -8.74978 89.6750 30 50 988 TC 1 -8.84240 89.4075 TC 50 988 10 106
1979122S04095 1979 35 SI WA KEVIN 1979-05-09 06:00:00 TS -8.86667 90.1000 50 988 bom main 1265 1231 ______O_____O_ -1 -8.80000 90.2000 30 50 988 3.50000 1 -9.00000 89.9000 TC 50 988 10 102
1979122S04095 1979 35 SI WA KEVIN 1979-05-09 09:00:00 TS -8.97568 90.5459 main 1238 1213 ______P_____P_ -1 -8.88479 90.6151 30 50 988 1 -9.15746 90.4075 TC 50 988 9 105
1979122S04095 1979 35 SI WA KEVIN 1979-05-09 12:00:00 TS -9.10000 90.9667 50 989 bom main 1205 1181 ______O_____O_ -1 -9.00000 91.0000 30 50 989 3.50000 -9.30000 90.9000 TC 50 988 9 105
1979122S04095 1979 35 SI WA KEVIN 1979-05-09 15:00:00 TS -9.21331 91.4451 main 1181 1151 ______P_____P_ -1 -9.12002 91.4926 30 50 989 -9.39988 91.3501 TC 50 988 10 106
1979122S04095 1979 35 SI WA KEVIN 1979-05-09 18:00:00 TS -9.36667 91.9333 50 989 bom main 1159 1139 ______O_____O_ -1 -9.30000 92.0000 30 50 989 3.50000 -9.50000 91.8000 TC 50 989 11 111
1979122S04095 1979 35 SI WA KEVIN 1979-05-09 21:00:00 TS -9.60176 92.4599 main 1133 1128 ______P_____P_ -1 -9.58506 92.5098 30 47 989 -9.63516 92.3599 TC 50 989 11 119
1979122S04095 1979 35 SI WA KEVIN 1979-05-10 00:00:00 TS -9.86667 92.8667 45 990 bom main 1133 1133 ______O_____O_ -1 -9.90000 92.9000 30 45 990 3.00000 -9.80000 92.8000 TC 50 989 8 131
1979122S04095 1979 35 SI WA KEVIN 1979-05-10 03:00:00 TS -10.0974 93.0301 main 1145 1145 ______P_____P_ -1 -10.1499 93.0676 30 45 990 -9.99235 92.9550 TC 47 989 5 161
1979122S04095 1979 35 SI WA KEVIN 1979-05-10 06:00:00 TS -10.3333 93.0333 45 990 bom main 1163 1163 ______O_____O_ -1 -10.4000 93.1000 30 45 990 3.00000 -10.2000 92.9000 TC 45 990 5 0
1979122S04095 1979 35 SI WA KEVIN 1979-05-10 09:00:00 TS -10.6150 93.0017 main 1191 1191 ______P_____P_ -1 -10.7225 93.1375 30 45 990 -10.4000 92.7301 TC 45 990 6 194
1979122S04095 1979 35 SI WA KEVIN 1979-05-10 12:00:00 TS -10.8667 92.9000 45 990 bom main 1225 1225 ______O_____O_ -1 -11.0000 93.1000 30 45 990 3.00000 -10.6000 92.5000 TC 45 990 4 210
1979122S04095 1979 35 SI WA KEVIN 1979-05-10 15:00:00 TS -11.0025 92.7749 main 1240 1240 ______P_____P_ -1 -11.1075 92.9874 30 45 990 -10.7925 92.3499 TC 45 990 4 228
1979122S04095 1979 35 SI WA KEVIN 1979-05-10 18:00:00 TS -11.1333 92.6000 45 990 bom main 1262 1262 ______O_____O_ -1 -11.2000 92.8000 30 45 990 3.00000 -11.0000 92.2000 TC 45 990 5 223
1979122S04095 1979 35 SI WA KEVIN 1979-05-10 21:00:00 TS -11.3908 92.4017 main 1302 1302 ______P_____P_ -1 -11.4499 92.5876 30 42 990 -11.2724 92.0300 TC 45 990 7 223
1979122S04095 1979 35 SI WA KEVIN 1979-05-11 00:00:00 TS -11.6333 92.1333 40 990 bom main 1339 1339 ______O_____O_ -1 -11.7000 92.3000 30 40 990 3.00000 -11.5000 91.8000 TC 45 990 7 238
1979122S04095 1979 35 SI WA KEVIN 1979-05-11 03:00:00 TS -11.7465 91.8124 main 1367 1367 ______P_____P_ -1 -11.8297 91.9749 30 40 990 -11.5800 91.4874 TC 45 990 8 257
1979122S04095 1979 35 SI WA KEVIN 1979-05-11 06:00:00 TS -11.8000 91.3667 40 991 bom main 1402 1402 ______O_____O_ -1 -11.9000 91.5000 21 40 991 3.00000 -11.6000 91.1000 TC 45 990 11 264
1979122S04095 1979 35 SI WA KEVIN 1979-05-11 09:00:00 TS -11.8628 90.7292 main 1457 1457 ______P_____P_ -1 -11.9654 90.7650 21 37 991 -11.6575 90.6575 TC 45 990 13 266
1979122S04095 1979 35 SI WA KEVIN 1979-05-11 12:00:00 TS -11.9000 90.0667 35 992 bom main 1499 1499 ______O_____O_ -1 -12.0000 90.0000 21 35 992 2.50000 -11.7000 90.2000 TC 45 991 11 268
1979122S04095 1979 35 SI MM KEVIN 1979-05-11 15:00:00 TS -11.9047 89.5750 main 1536 1536 ______P_____P_ -1 -12.0072 89.4625 21 35 992 -11.6999 89.7999 TC 45 991 9 270
1979122S04095 1979 35 SI MM KEVIN 1979-05-11 18:00:00 TS -11.9000 89.1333 35 993 bom main 1573 1573 ______O_____O_ -1 -12.0000 89.0000 21 35 993 2.50000 -11.7000 89.4000 TC 45 992 9 270
1979122S04095 1979 35 SI MM KEVIN 1979-05-11 21:00:00 TS -11.9111 88.6625 main 1604 1604 ______P_____P_ -1 -11.9978 88.5125 21 35 993 -11.7377 88.9626 TC 42 992 9 268
1979122S04095 1979 35 SI MM KEVIN 1979-05-12 00:00:00 TS -11.9333 88.1667 35 994 bom main 1643 ______O_____O_ -1 -12.0000 88.0000 21 35 994 2.50000 -11.8000 88.5000 TC 40 993 10 267

About IBTrACS Database

This database is a web-friendly format of International Best Track Archive for Climate Stewardship (IBTrACS), a global best track data archive curated by NOAA dating back to 1842.

Updated: 2021-10-21